sensor_id;sensor_type;location;lat;lon;timestamp;P1;durP1;ratioP1;P2;durP2;ratioP2
63095;SDS011;49184;55.596;37.770;2022-11-18T00:06:30;5.38;;;3.17;;
63095;SDS011;49184;55.596;37.770;2022-11-18T00:17:06;8.43;;;4.22;;
63095;SDS011;49184;55.596;37.770;2022-11-18T00:26:05;10.02;;;4.55;;
63095;SDS011;49184;55.596;37.770;2022-11-18T00:29:04;5.65;;;2.63;;
63095;SDS011;49184;55.596;37.770;2022-11-18T00:31:30;8.35;;;4.13;;
63095;SDS011;49184;55.596;37.770;2022-11-18T00:34:05;6.20;;;3.33;;
63095;SDS011;49184;55.596;37.770;2022-11-18T00:39:28;10.35;;;4.95;;
63095;SDS011;49184;55.596;37.770;2022-11-18T00:41:54;17.25;;;4.53;;
63095;SDS011;49184;55.596;37.770;2022-11-18T00:44:39;14.60;;;5.20;;
63095;SDS011;49184;55.596;37.770;2022-11-18T00:47:08;8.25;;;3.47;;
63095;SDS011;49184;55.596;37.770;2022-11-18T00:49:34;8.77;;;4.40;;
63095;SDS011;49184;55.596;37.770;2022-11-18T00:54:47;9.18;;;4.38;;
63095;SDS011;49184;55.596;37.770;2022-11-18T01:00:11;14.63;;;4.30;;
63095;SDS011;49184;55.596;37.770;2022-11-18T01:05:35;17.88;;;4.72;;
63095;SDS011;49184;55.596;37.770;2022-11-18T01:08:01;9.35;;;4.20;;
63095;SDS011;49184;55.596;37.770;2022-11-18T01:10:28;5.47;;;3.17;;
63095;SDS011;49184;55.596;37.770;2022-11-18T01:32:46;6.18;;;3.80;;
63095;SDS011;49184;55.596;37.770;2022-11-18T01:38:57;14.10;;;4.35;;
63095;SDS011;49184;55.596;37.770;2022-11-18T01:41:35;8.52;;;3.75;;
63095;SDS011;49184;55.596;37.770;2022-11-18T01:47:20;9.27;;;3.95;;
63095;SDS011;49184;55.596;37.770;2022-11-18T01:49:48;12.02;;;4.55;;
63095;SDS011;49184;55.596;37.770;2022-11-18T01:52:20;10.18;;;4.97;;
63095;SDS011;49184;55.596;37.770;2022-11-18T01:57:45;6.90;;;3.60;;
63095;SDS011;49184;55.596;37.770;2022-11-18T02:00:14;12.60;;;4.88;;
63095;SDS011;49184;55.596;37.770;2022-11-18T02:02:49;10.52;;;4.68;;
63095;SDS011;49184;55.596;37.770;2022-11-18T02:12:33;5.22;;;2.47;;
63095;SDS011;49184;55.596;37.770;2022-11-18T02:15:01;11.93;;;5.15;;
63095;SDS011;49184;55.596;37.770;2022-11-18T02:41:29;8.65;;;4.18;;
63095;SDS011;49184;55.596;37.770;2022-11-18T02:51:38;6.78;;;3.65;;
63095;SDS011;49184;55.596;37.770;2022-11-18T02:54:12;8.43;;;4.22;;
63095;SDS011;49184;55.596;37.770;2022-11-18T02:59:37;9.65;;;3.88;;
63095;SDS011;49184;55.596;37.770;2022-11-18T03:04:59;9.93;;;4.53;;
63095;SDS011;49184;55.596;37.770;2022-11-18T03:07:29;8.48;;;3.15;;
63095;SDS011;49184;55.596;37.770;2022-11-18T03:09:59;5.25;;;3.00;;
63095;SDS011;49184;55.596;37.770;2022-11-18T03:15:43;8.57;;;3.92;;
63095;SDS011;49184;55.596;37.770;2022-11-18T03:21:11;6.68;;;3.63;;
63095;SDS011;49184;55.596;37.770;2022-11-18T03:26:54;8.30;;;4.07;;
63095;SDS011;49184;55.596;37.770;2022-11-18T03:32:42;12.60;;;3.45;;
63095;SDS011;49184;55.596;37.770;2022-11-18T03:36:12;6.80;;;3.72;;
63095;SDS011;49184;55.596;37.770;2022-11-18T03:41:48;5.70;;;3.67;;
63095;SDS011;49184;55.596;37.770;2022-11-18T03:47:48;10.55;;;4.13;;
63095;SDS011;49184;55.596;37.770;2022-11-18T03:54:12;8.05;;;3.40;;
63095;SDS011;49184;55.596;37.770;2022-11-18T04:03:10;7.75;;;3.72;;
63095;SDS011;49184;55.596;37.770;2022-11-18T04:06:02;7.40;;;3.40;;
63095;SDS011;49184;55.596;37.770;2022-11-18T04:12:10;12.10;;;4.80;;
63095;SDS011;49184;55.596;37.770;2022-11-18T04:14:48;7.50;;;3.40;;
63095;SDS011;49184;55.596;37.770;2022-11-18T04:20:12;7.32;;;3.75;;
63095;SDS011;49184;55.596;37.770;2022-11-18T04:25:42;10.45;;;4.25;;
63095;SDS011;49184;55.596;37.770;2022-11-18T04:31:00;8.85;;;4.32;;
63095;SDS011;49184;55.596;37.770;2022-11-18T04:33:26;9.02;;;3.65;;
63095;SDS011;49184;55.596;37.770;2022-11-18T04:35:52;11.10;;;4.88;;
63095;SDS011;49184;55.596;37.770;2022-11-18T04:38:43;9.82;;;4.53;;
63095;SDS011;49184;55.596;37.770;2022-11-18T04:41:09;7.25;;;3.95;;
63095;SDS011;49184;55.596;37.770;2022-11-18T04:47:12;8.38;;;4.40;;
63095;SDS011;49184;55.596;37.770;2022-11-18T04:55:46;8.02;;;3.78;;
63095;SDS011;49184;55.596;37.770;2022-11-18T04:58:15;8.00;;;3.85;;
63095;SDS011;49184;55.596;37.770;2022-11-18T05:00:41;8.43;;;3.78;;
63095;SDS011;49184;55.596;37.770;2022-11-18T05:03:07;7.75;;;4.47;;
63095;SDS011;49184;55.596;37.770;2022-11-18T05:05:45;15.93;;;3.92;;
63095;SDS011;49184;55.596;37.770;2022-11-18T05:11:04;5.85;;;3.33;;
63095;SDS011;49184;55.596;37.770;2022-11-18T05:14:16;8.45;;;3.53;;
63095;SDS011;49184;55.596;37.770;2022-11-18T05:16:43;7.85;;;4.35;;
63095;SDS011;49184;55.596;37.770;2022-11-18T05:19:09;11.00;;;4.10;;
63095;SDS011;49184;55.596;37.770;2022-11-18T05:21:36;9.52;;;3.50;;
63095;SDS011;49184;55.596;37.770;2022-11-18T05:24:02;8.77;;;4.20;;
63095;SDS011;49184;55.596;37.770;2022-11-18T05:26:35;7.10;;;3.85;;
63095;SDS011;49184;55.596;37.770;2022-11-18T05:29:02;8.98;;;3.75;;
63095;SDS011;49184;55.596;37.770;2022-11-18T05:31:29;9.07;;;4.40;;
63095;SDS011;49184;55.596;37.770;2022-11-18T05:33:55;6.60;;;3.63;;
63095;SDS011;49184;55.596;37.770;2022-11-18T05:38:50;7.07;;;3.33;;
63095;SDS011;49184;55.596;37.770;2022-11-18T05:41:16;6.32;;;3.55;;
63095;SDS011;49184;55.596;37.770;2022-11-18T05:44:02;17.60;;;3.42;;
63095;SDS011;49184;55.596;37.770;2022-11-18T05:46:29;6.30;;;3.30;;
63095;SDS011;49184;55.596;37.770;2022-11-18T05:51:25;6.95;;;3.65;;
63095;SDS011;49184;55.596;37.770;2022-11-18T05:53:51;7.03;;;3.42;;
63095;SDS011;49184;55.596;37.770;2022-11-18T05:58:45;18.05;;;4.00;;
63095;SDS011;49184;55.596;37.770;2022-11-18T06:01:12;29.98;;;4.95;;
63095;SDS011;49184;55.596;37.770;2022-11-18T06:03:42;9.07;;;4.05;;
63095;SDS011;49184;55.596;37.770;2022-11-18T06:06:09;19.10;;;4.15;;
63095;SDS011;49184;55.596;37.770;2022-11-18T06:08:39;13.23;;;4.97;;
63095;SDS011;49184;55.596;37.770;2022-11-18T06:11:15;14.43;;;4.85;;
63095;SDS011;49184;55.596;37.770;2022-11-18T06:13:46;16.92;;;4.68;;
63095;SDS011;49184;55.596;37.770;2022-11-18T06:42:18;8.50;;;3.80;;
63095;SDS011;49184;55.596;37.770;2022-11-18T06:45:03;29.98;;;4.97;;
63095;SDS011;49184;55.596;37.770;2022-11-18T06:47:39;11.73;;;4.43;;
63095;SDS011;49184;55.596;37.770;2022-11-18T06:50:06;11.98;;;4.18;;
63095;SDS011;49184;55.596;37.770;2022-11-18T06:52:35;10.35;;;4.53;;
63095;SDS011;49184;55.596;37.770;2022-11-18T06:55:04;26.88;;;4.80;;
63095;SDS011;49184;55.596;37.770;2022-11-18T06:57:33;17.67;;;3.85;;
63095;SDS011;49184;55.596;37.770;2022-11-18T06:59:59;11.40;;;4.38;;
63095;SDS011;49184;55.596;37.770;2022-11-18T07:02:26;8.93;;;4.13;;
63095;SDS011;49184;55.596;37.770;2022-11-18T07:04:52;19.20;;;4.97;;
63095;SDS011;49184;55.596;37.770;2022-11-18T07:07:18;7.50;;;4.38;;
63095;SDS011;49184;55.596;37.770;2022-11-18T07:09:44;15.80;;;5.07;;
63095;SDS011;49184;55.596;37.770;2022-11-18T07:12:10;16.55;;;4.10;;
63095;SDS011;49184;55.596;37.770;2022-11-18T07:17:04;14.45;;;3.97;;
63095;SDS011;49184;55.596;37.770;2022-11-18T07:19:33;16.23;;;5.35;;
63095;SDS011;49184;55.596;37.770;2022-11-18T07:21:59;13.07;;;3.80;;
63095;SDS011;49184;55.596;37.770;2022-11-18T07:24:28;14.07;;;4.40;;
63095;SDS011;49184;55.596;37.770;2022-11-18T07:26:55;31.25;;;4.93;;
63095;SDS011;49184;55.596;37.770;2022-11-18T07:29:21;16.05;;;5.22;;
63095;SDS011;49184;55.596;37.770;2022-11-18T07:31:47;18.70;;;5.63;;
63095;SDS011;49184;55.596;37.770;2022-11-18T07:34:21;14.05;;;3.78;;
63095;SDS011;49184;55.596;37.770;2022-11-18T07:36:48;11.18;;;4.32;;
63095;SDS011;49184;55.596;37.770;2022-11-18T07:39:14;12.52;;;3.67;;
63095;SDS011;49184;55.596;37.770;2022-11-18T07:41:40;7.60;;;3.33;;
63095;SDS011;49184;55.596;37.770;2022-11-18T07:44:10;26.42;;;5.22;;
63095;SDS011;49184;55.596;37.770;2022-11-18T07:46:45;9.07;;;4.07;;
63095;SDS011;49184;55.596;37.770;2022-11-18T07:49:12;7.68;;;3.67;;
63095;SDS011;49184;55.596;37.770;2022-11-18T07:51:38;19.63;;;4.78;;
63095;SDS011;49184;55.596;37.770;2022-11-18T07:54:08;9.77;;;4.53;;
63095;SDS011;49184;55.596;37.770;2022-11-18T07:56:36;15.38;;;5.18;;
63095;SDS011;49184;55.596;37.770;2022-11-18T07:59:02;7.93;;;3.78;;
63095;SDS011;49184;55.596;37.770;2022-11-18T08:01:29;10.45;;;5.05;;
63095;SDS011;49184;55.596;37.770;2022-11-18T08:04:03;11.27;;;4.10;;
63095;SDS011;49184;55.596;37.770;2022-11-18T08:06:35;12.00;;;4.28;;
63095;SDS011;49184;55.596;37.770;2022-11-18T08:11:29;13.73;;;4.78;;
63095;SDS011;49184;55.596;37.770;2022-11-18T08:13:56;27.50;;;6.22;;
63095;SDS011;49184;55.596;37.770;2022-11-18T08:16:23;21.80;;;6.03;;
63095;SDS011;49184;55.596;37.770;2022-11-18T08:18:50;15.98;;;4.85;;
63095;SDS011;49184;55.596;37.770;2022-11-18T08:21:17;23.47;;;5.33;;
63095;SDS011;49184;55.596;37.770;2022-11-18T08:23:50;11.27;;;4.80;;
63095;SDS011;49184;55.596;37.770;2022-11-18T08:26:17;8.00;;;4.10;;
63095;SDS011;49184;55.596;37.770;2022-11-18T08:28:44;14.57;;;6.50;;
63095;SDS011;49184;55.596;37.770;2022-11-18T08:31:11;11.88;;;4.65;;
63095;SDS011;49184;55.596;37.770;2022-11-18T08:36:36;13.45;;;5.57;;
63095;SDS011;49184;55.596;37.770;2022-11-18T08:39:03;27.10;;;5.35;;
63095;SDS011;49184;55.596;37.770;2022-11-18T08:41:33;25.63;;;4.63;;
63095;SDS011;49184;55.596;37.770;2022-11-18T08:44:04;19.35;;;4.97;;
63095;SDS011;49184;55.596;37.770;2022-11-18T08:46:48;11.48;;;4.97;;
63095;SDS011;49184;55.596;37.770;2022-11-18T08:49:15;20.33;;;4.97;;
63095;SDS011;49184;55.596;37.770;2022-11-18T08:51:41;21.73;;;5.20;;
63095;SDS011;49184;55.596;37.770;2022-11-18T08:54:07;14.57;;;5.30;;
63095;SDS011;49184;55.596;37.770;2022-11-18T08:56:36;14.30;;;5.20;;
63095;SDS011;49184;55.596;37.770;2022-11-18T08:59:07;15.65;;;6.20;;
63095;SDS011;49184;55.596;37.770;2022-11-18T09:01:35;9.45;;;4.82;;
63095;SDS011;49184;55.596;37.770;2022-11-18T09:04:03;23.42;;;5.35;;
63095;SDS011;49184;55.596;37.770;2022-11-18T09:06:30;20.83;;;5.35;;
63095;SDS011;49184;55.596;37.770;2022-11-18T09:09:05;9.02;;;4.63;;
63095;SDS011;49184;55.596;37.770;2022-11-18T09:15:10;12.70;;;4.97;;
63095;SDS011;49184;55.596;37.770;2022-11-18T09:20:03;9.77;;;5.20;;
63095;SDS011;49184;55.596;37.770;2022-11-18T09:22:30;8.75;;;5.00;;
63095;SDS011;49184;55.596;37.770;2022-11-18T09:24:56;9.38;;;4.82;;
63095;SDS011;49184;55.596;37.770;2022-11-18T09:27:36;13.90;;;5.05;;
63095;SDS011;49184;55.596;37.770;2022-11-18T09:30:02;9.07;;;4.43;;
63095;SDS011;49184;55.596;37.770;2022-11-18T09:35:04;9.38;;;4.38;;
63095;SDS011;49184;55.596;37.770;2022-11-18T09:37:31;19.83;;;4.68;;
63095;SDS011;49184;55.596;37.770;2022-11-18T09:39:57;9.23;;;4.13;;
63095;SDS011;49184;55.596;37.770;2022-11-18T09:45:26;11.05;;;4.82;;
63095;SDS011;49184;55.596;37.770;2022-11-18T09:47:57;8.48;;;4.35;;
63095;SDS011;49184;55.596;37.770;2022-11-18T09:53:25;21.40;;;5.50;;
63095;SDS011;49184;55.596;37.770;2022-11-18T09:56:00;10.55;;;5.28;;
63095;SDS011;49184;55.596;37.770;2022-11-18T09:58:34;13.50;;;4.97;;
63095;SDS011;49184;55.596;37.770;2022-11-18T10:01:02;16.38;;;5.65;;
63095;SDS011;49184;55.596;37.770;2022-11-18T10:03:34;8.73;;;4.63;;
63095;SDS011;49184;55.596;37.770;2022-11-18T10:06:04;17.98;;;5.88;;
63095;SDS011;49184;55.596;37.770;2022-11-18T10:14:58;9.20;;;4.55;;
63095;SDS011;49184;55.596;37.770;2022-11-18T10:23:20;8.25;;;4.30;;
63095;SDS011;49184;55.596;37.770;2022-11-18T10:25:53;11.85;;;4.55;;
63095;SDS011;49184;55.596;37.770;2022-11-18T10:28:41;8.02;;;4.75;;
63095;SDS011;49184;55.596;37.770;2022-11-18T10:31:08;9.13;;;4.25;;
63095;SDS011;49184;55.596;37.770;2022-11-18T10:33:39;20.15;;;5.60;;
63095;SDS011;49184;55.596;37.770;2022-11-18T10:38:41;9.80;;;4.88;;
63095;SDS011;49184;55.596;37.770;2022-11-18T10:41:11;11.88;;;4.75;;
63095;SDS011;49184;55.596;37.770;2022-11-18T10:43:50;10.20;;;4.72;;
63095;SDS011;49184;55.596;37.770;2022-11-18T10:51:45;9.43;;;4.80;;
63095;SDS011;49184;55.596;37.770;2022-11-18T10:54:36;11.30;;;4.75;;
63095;SDS011;49184;55.596;37.770;2022-11-18T11:02:18;11.60;;;5.75;;
63095;SDS011;49184;55.596;37.770;2022-11-18T11:05:16;13.95;;;5.10;;
63095;SDS011;49184;55.596;37.770;2022-11-18T11:07:59;13.48;;;5.20;;
63095;SDS011;49184;55.596;37.770;2022-11-18T11:10:29;10.63;;;5.70;;
63095;SDS011;49184;55.596;37.770;2022-11-18T11:13:02;10.87;;;5.20;;
63095;SDS011;49184;55.596;37.770;2022-11-18T11:15:40;11.00;;;3.90;;
63095;SDS011;49184;55.596;37.770;2022-11-18T11:18:19;18.52;;;4.55;;
63095;SDS011;49184;55.596;37.770;2022-11-18T11:21:19;16.58;;;5.75;;
63095;SDS011;49184;55.596;37.770;2022-11-18T11:24:10;17.20;;;5.60;;
63095;SDS011;49184;55.596;37.770;2022-11-18T11:26:42;10.75;;;4.68;;
63095;SDS011;49184;55.596;37.770;2022-11-18T11:35:21;21.70;;;6.43;;
63095;SDS011;49184;55.596;37.770;2022-11-18T11:37:58;12.68;;;5.60;;
63095;SDS011;49184;55.596;37.770;2022-11-18T11:40:52;21.08;;;5.97;;
63095;SDS011;49184;55.596;37.770;2022-11-18T11:46:44;24.25;;;5.75;;
63095;SDS011;49184;55.596;37.770;2022-11-18T11:49:58;34.17;;;6.55;;
63095;SDS011;49184;55.596;37.770;2022-11-18T11:52:52;15.60;;;6.03;;
63095;SDS011;49184;55.596;37.770;2022-11-18T11:55:58;13.82;;;5.05;;
63095;SDS011;49184;55.596;37.770;2022-11-18T12:01:57;32.92;;;6.78;;
63095;SDS011;49184;55.596;37.770;2022-11-18T12:06:59;30.50;;;6.53;;
63095;SDS011;49184;55.596;37.770;2022-11-18T12:12:00;16.65;;;5.88;;
63095;SDS011;49184;55.596;37.770;2022-11-18T12:15:04;22.77;;;6.70;;
63095;SDS011;49184;55.596;37.770;2022-11-18T12:20:43;12.35;;;4.93;;
63095;SDS011;49184;55.596;37.770;2022-11-18T12:23:18;23.70;;;5.78;;
63095;SDS011;49184;55.596;37.770;2022-11-18T12:28:37;61.70;;;7.40;;
63095;SDS011;49184;55.596;37.770;2022-11-18T12:33:50;13.75;;;6.35;;
63095;SDS011;49184;55.596;37.770;2022-11-18T12:36:26;20.52;;;6.03;;
63095;SDS011;49184;55.596;37.770;2022-11-18T12:41:52;17.45;;;5.43;;
63095;SDS011;49184;55.596;37.770;2022-11-18T12:44:41;25.50;;;5.97;;
63095;SDS011;49184;55.596;37.770;2022-11-18T12:47:10;10.88;;;5.03;;
63095;SDS011;49184;55.596;37.770;2022-11-18T12:53:06;14.90;;;5.55;;
63095;SDS011;49184;55.596;37.770;2022-11-18T12:55:23;16.23;;;5.30;;
63095;SDS011;49184;55.596;37.770;2022-11-18T12:57:53;12.80;;;5.28;;
63095;SDS011;49184;55.596;37.770;2022-11-18T13:02:51;12.43;;;5.47;;
63095;SDS011;49184;55.596;37.770;2022-11-18T13:11:04;23.42;;;6.07;;
63095;SDS011;49184;55.596;37.770;2022-11-18T13:13:53;23.05;;;6.20;;
63095;SDS011;49184;55.596;37.770;2022-11-18T13:16:39;25.02;;;5.85;;
63095;SDS011;49184;55.596;37.770;2022-11-18T13:19:57;13.10;;;5.22;;
63095;SDS011;49184;55.596;37.770;2022-11-18T13:22:23;35.80;;;6.18;;
63095;SDS011;49184;55.596;37.770;2022-11-18T13:25:21;28.13;;;5.38;;
63095;SDS011;49184;55.596;37.770;2022-11-18T13:27:54;26.00;;;5.55;;
63095;SDS011;49184;55.596;37.770;2022-11-18T13:30:26;12.30;;;4.72;;
63095;SDS011;49184;55.596;37.770;2022-11-18T13:32:56;25.13;;;6.28;;
63095;SDS011;49184;55.596;37.770;2022-11-18T13:35:27;16.15;;;6.18;;
63095;SDS011;49184;55.596;37.770;2022-11-18T13:38:02;34.22;;;6.22;;
63095;SDS011;49184;55.596;37.770;2022-11-18T13:40:44;15.63;;;5.72;;
63095;SDS011;49184;55.596;37.770;2022-11-18T13:43:32;28.10;;;6.53;;
63095;SDS011;49184;55.596;37.770;2022-11-18T13:46:09;15.05;;;5.80;;
63095;SDS011;49184;55.596;37.770;2022-11-18T13:48:48;28.20;;;6.65;;
63095;SDS011;49184;55.596;37.770;2022-11-18T13:51:17;20.75;;;6.05;;
63095;SDS011;49184;55.596;37.770;2022-11-18T13:53:44;24.70;;;6.65;;
63095;SDS011;49184;55.596;37.770;2022-11-18T13:56:18;24.65;;;6.07;;
63095;SDS011;49184;55.596;37.770;2022-11-18T13:58:52;31.67;;;5.47;;
63095;SDS011;49184;55.596;37.770;2022-11-18T14:04:22;12.48;;;5.57;;
63095;SDS011;49184;55.596;37.770;2022-11-18T14:06:50;12.88;;;5.00;;
63095;SDS011;49184;55.596;37.770;2022-11-18T14:12:02;18.50;;;5.53;;
63095;SDS011;49184;55.596;37.770;2022-11-18T14:14:46;24.63;;;6.32;;
63095;SDS011;49184;55.596;37.770;2022-11-18T14:17:20;32.28;;;6.68;;
63095;SDS011;49184;55.596;37.770;2022-11-18T14:19:48;33.88;;;6.32;;
63095;SDS011;49184;55.596;37.770;2022-11-18T14:22:32;31.45;;;6.53;;
63095;SDS011;49184;55.596;37.770;2022-11-18T14:24:59;21.23;;;5.40;;
63095;SDS011;49184;55.596;37.770;2022-11-18T14:27:39;23.42;;;5.22;;
63095;SDS011;49184;55.596;37.770;2022-11-18T14:30:24;20.80;;;5.88;;
63095;SDS011;49184;55.596;37.770;2022-11-18T14:33:29;35.00;;;5.47;;
63095;SDS011;49184;55.596;37.770;2022-11-18T14:35:55;30.50;;;6.70;;
63095;SDS011;49184;55.596;37.770;2022-11-18T14:38:43;18.60;;;5.60;;
63095;SDS011;49184;55.596;37.770;2022-11-18T14:41:11;16.15;;;4.85;;
63095;SDS011;49184;55.596;37.770;2022-11-18T14:44:01;16.92;;;5.97;;
63095;SDS011;49184;55.596;37.770;2022-11-18T14:46:28;18.77;;;4.72;;
63095;SDS011;49184;55.596;37.770;2022-11-18T14:49:00;17.05;;;5.70;;
63095;SDS011;49184;55.596;37.770;2022-11-18T14:51:28;24.80;;;5.50;;
63095;SDS011;49184;55.596;37.770;2022-11-18T14:53:54;11.73;;;4.72;;
63095;SDS011;49184;55.596;37.770;2022-11-18T14:56:38;19.13;;;5.00;;
63095;SDS011;49184;55.596;37.770;2022-11-18T14:59:10;11.15;;;3.50;;
63095;SDS011;49184;55.596;37.770;2022-11-18T15:01:39;10.32;;;4.72;;
63095;SDS011;49184;55.596;37.770;2022-11-18T15:04:17;10.13;;;4.18;;
63095;SDS011;49184;55.596;37.770;2022-11-18T15:06:46;23.98;;;5.05;;
63095;SDS011;49184;55.596;37.770;2022-11-18T15:09:13;10.77;;;4.63;;
63095;SDS011;49184;55.596;37.770;2022-11-18T15:11:40;8.05;;;4.43;;
63095;SDS011;49184;55.596;37.770;2022-11-18T15:14:12;9.73;;;5.13;;
63095;SDS011;49184;55.596;37.770;2022-11-18T15:16:40;9.50;;;5.15;;
63095;SDS011;49184;55.596;37.770;2022-11-18T15:19:31;12.40;;;6.22;;
63095;SDS011;49184;55.596;37.770;2022-11-18T15:21:57;12.32;;;5.32;;
63095;SDS011;49184;55.596;37.770;2022-11-18T15:24:37;20.00;;;7.25;;
63095;SDS011;49184;55.596;37.770;2022-11-18T15:27:07;15.38;;;7.03;;
63095;SDS011;49184;55.596;37.770;2022-11-18T15:32:31;11.45;;;5.90;;
63095;SDS011;49184;55.596;37.770;2022-11-18T15:35:10;10.98;;;6.07;;
63095;SDS011;49184;55.596;37.770;2022-11-18T15:40:35;15.13;;;5.20;;
63095;SDS011;49184;55.596;37.770;2022-11-18T15:46:29;12.32;;;4.95;;
63095;SDS011;49184;55.596;37.770;2022-11-18T15:48:59;9.77;;;4.65;;
63095;SDS011;49184;55.596;37.770;2022-11-18T15:51:26;9.45;;;4.68;;
63095;SDS011;49184;55.596;37.770;2022-11-18T15:53:55;14.85;;;5.95;;
63095;SDS011;49184;55.596;37.770;2022-11-18T15:56:28;11.05;;;5.35;;
63095;SDS011;49184;55.596;37.770;2022-11-18T15:58:57;16.52;;;5.55;;
63095;SDS011;49184;55.596;37.770;2022-11-18T16:01:31;16.48;;;6.22;;
63095;SDS011;49184;55.596;37.770;2022-11-18T16:06:45;10.63;;;5.22;;
63095;SDS011;49184;55.596;37.770;2022-11-18T16:09:12;7.18;;;3.83;;
63095;SDS011;49184;55.596;37.770;2022-11-18T16:12:08;4.85;;;2.78;;
63095;SDS011;49184;55.596;37.770;2022-11-18T16:14:54;16.75;;;5.55;;
63095;SDS011;49184;55.596;37.770;2022-11-18T16:17:46;15.35;;;4.45;;
63095;SDS011;49184;55.596;37.770;2022-11-18T16:23:36;11.73;;;4.95;;
63095;SDS011;49184;55.596;37.770;2022-11-18T16:26:02;12.68;;;4.95;;
63095;SDS011;49184;55.596;37.770;2022-11-18T16:28:28;11.60;;;5.10;;
63095;SDS011;49184;55.596;37.770;2022-11-18T16:31:10;8.95;;;4.60;;
63095;SDS011;49184;55.596;37.770;2022-11-18T16:34:04;13.55;;;5.45;;
63095;SDS011;49184;55.596;37.770;2022-11-18T16:39:36;10.52;;;5.43;;
63095;SDS011;49184;55.596;37.770;2022-11-18T16:42:02;13.57;;;6.28;;
63095;SDS011;49184;55.596;37.770;2022-11-18T16:44:28;11.63;;;5.70;;
63095;SDS011;49184;55.596;37.770;2022-11-18T16:46:56;14.40;;;5.65;;
63095;SDS011;49184;55.596;37.770;2022-11-18T16:51:54;13.32;;;5.53;;
63095;SDS011;49184;55.596;37.770;2022-11-18T16:54:41;9.10;;;4.80;;
63095;SDS011;49184;55.596;37.770;2022-11-18T16:57:11;11.60;;;6.13;;
63095;SDS011;49184;55.596;37.770;2022-11-18T16:59:41;11.73;;;6.00;;
63095;SDS011;49184;55.596;37.770;2022-11-18T17:02:12;12.23;;;6.07;;
63095;SDS011;49184;55.596;37.770;2022-11-18T17:04:41;14.15;;;5.60;;
63095;SDS011;49184;55.596;37.770;2022-11-18T17:07:44;11.25;;;5.30;;
63095;SDS011;49184;55.596;37.770;2022-11-18T17:10:14;10.63;;;5.38;;
63095;SDS011;49184;55.596;37.770;2022-11-18T17:16:51;9.55;;;5.40;;
63095;SDS011;49184;55.596;37.770;2022-11-18T17:20:39;10.27;;;4.72;;
63095;SDS011;49184;55.596;37.770;2022-11-18T17:23:05;15.63;;;6.32;;
63095;SDS011;49184;55.596;37.770;2022-11-18T17:28:00;12.63;;;5.43;;
63095;SDS011;49184;55.596;37.770;2022-11-18T17:30:34;10.07;;;4.88;;
63095;SDS011;49184;55.596;37.770;2022-11-18T17:33:06;10.95;;;5.25;;
63095;SDS011;49184;55.596;37.770;2022-11-18T17:38:28;8.27;;;4.88;;
63095;SDS011;49184;55.596;37.770;2022-11-18T17:43:27;11.63;;;5.35;;
63095;SDS011;49184;55.596;37.770;2022-11-18T17:45:56;13.68;;;5.68;;
63095;SDS011;49184;55.596;37.770;2022-11-18T17:48:30;11.40;;;5.63;;
63095;SDS011;49184;55.596;37.770;2022-11-18T17:51:05;13.13;;;6.28;;
63095;SDS011;49184;55.596;37.770;2022-11-18T17:53:36;10.88;;;5.75;;
63095;SDS011;49184;55.596;37.770;2022-11-18T17:56:13;11.77;;;5.85;;
63095;SDS011;49184;55.596;37.770;2022-11-18T17:58:43;11.55;;;5.65;;
63095;SDS011;49184;55.596;37.770;2022-11-18T18:01:18;10.32;;;5.18;;
63095;SDS011;49184;55.596;37.770;2022-11-18T18:04:01;11.00;;;5.43;;
63095;SDS011;49184;55.596;37.770;2022-11-18T18:07:07;11.30;;;5.20;;
63095;SDS011;49184;55.596;37.770;2022-11-18T18:09:37;7.80;;;4.82;;
63095;SDS011;49184;55.596;37.770;2022-11-18T18:12:08;11.90;;;5.63;;
63095;SDS011;49184;55.596;37.770;2022-11-18T18:17:20;10.40;;;5.50;;
63095;SDS011;49184;55.596;37.770;2022-11-18T18:19:56;11.32;;;5.20;;
63095;SDS011;49184;55.596;37.770;2022-11-18T18:22:23;11.50;;;5.60;;
63095;SDS011;49184;55.596;37.770;2022-11-18T18:24:49;15.02;;;5.80;;
63095;SDS011;49184;55.596;37.770;2022-11-18T18:27:23;9.40;;;5.43;;
63095;SDS011;49184;55.596;37.770;2022-11-18T18:30:17;10.00;;;5.43;;
63095;SDS011;49184;55.596;37.770;2022-11-18T18:32:46;13.30;;;6.15;;
63095;SDS011;49184;55.596;37.770;2022-11-18T18:35:39;15.55;;;6.38;;
63095;SDS011;49184;55.596;37.770;2022-11-18T18:38:07;11.57;;;6.15;;
63095;SDS011;49184;55.596;37.770;2022-11-18T18:40:33;12.60;;;6.20;;
63095;SDS011;49184;55.596;37.770;2022-11-18T18:43:01;14.45;;;6.60;;
63095;SDS011;49184;55.596;37.770;2022-11-18T18:45:28;9.55;;;5.35;;
63095;SDS011;49184;55.596;37.770;2022-11-18T18:51:54;9.60;;;5.45;;
63095;SDS011;49184;55.596;37.770;2022-11-18T18:54:35;12.45;;;5.93;;
63095;SDS011;49184;55.596;37.770;2022-11-18T18:57:03;11.60;;;5.65;;
63095;SDS011;49184;55.596;37.770;2022-11-18T18:59:39;12.05;;;6.32;;
63095;SDS011;49184;55.596;37.770;2022-11-18T19:02:11;13.65;;;6.18;;
63095;SDS011;49184;55.596;37.770;2022-11-18T19:04:37;11.50;;;6.10;;
63095;SDS011;49184;55.596;37.770;2022-11-18T19:07:10;13.45;;;6.82;;
63095;SDS011;49184;55.596;37.770;2022-11-18T19:09:38;13.45;;;6.28;;
63095;SDS011;49184;55.596;37.770;2022-11-18T19:15:41;13.07;;;6.82;;
63095;SDS011;49184;55.596;37.770;2022-11-18T19:18:22;11.15;;;6.00;;
63095;SDS011;49184;55.596;37.770;2022-11-18T19:20:52;13.40;;;6.20;;
63095;SDS011;49184;55.596;37.770;2022-11-18T19:23:20;11.15;;;5.78;;
63095;SDS011;49184;55.596;37.770;2022-11-18T19:25:48;12.23;;;5.85;;
63095;SDS011;49184;55.596;37.770;2022-11-18T19:28:25;9.27;;;4.97;;
63095;SDS011;49184;55.596;37.770;2022-11-18T19:30:52;12.90;;;6.63;;
63095;SDS011;49184;55.596;37.770;2022-11-18T19:33:18;12.23;;;6.05;;
63095;SDS011;49184;55.596;37.770;2022-11-18T19:35:47;13.45;;;5.72;;
63095;SDS011;49184;55.596;37.770;2022-11-18T19:38:15;12.95;;;5.90;;
63095;SDS011;49184;55.596;37.770;2022-11-18T19:40:41;10.80;;;5.97;;
63095;SDS011;49184;55.596;37.770;2022-11-18T19:43:12;12.20;;;6.10;;
63095;SDS011;49184;55.596;37.770;2022-11-18T19:45:39;15.48;;;6.13;;
63095;SDS011;49184;55.596;37.770;2022-11-18T19:48:29;11.55;;;6.10;;
63095;SDS011;49184;55.596;37.770;2022-11-18T19:51:18;12.65;;;5.95;;
63095;SDS011;49184;55.596;37.770;2022-11-18T19:53:56;11.95;;;5.97;;
63095;SDS011;49184;55.596;37.770;2022-11-18T19:56:23;12.47;;;6.13;;
63095;SDS011;49184;55.596;37.770;2022-11-18T20:02:42;10.95;;;5.97;;
63095;SDS011;49184;55.596;37.770;2022-11-18T20:09:12;14.05;;;6.22;;
63095;SDS011;49184;55.596;37.770;2022-11-18T20:11:46;11.93;;;6.22;;
63095;SDS011;49184;55.596;37.770;2022-11-18T20:14:12;14.77;;;5.93;;
63095;SDS011;49184;55.596;37.770;2022-11-18T20:16:39;11.65;;;6.07;;
63095;SDS011;49184;55.596;37.770;2022-11-18T20:19:09;13.82;;;6.18;;
63095;SDS011;49184;55.596;37.770;2022-11-18T20:21:41;11.70;;;6.30;;
63095;SDS011;49184;55.596;37.770;2022-11-18T20:26:59;13.52;;;5.80;;
63095;SDS011;49184;55.596;37.770;2022-11-18T20:29:29;16.08;;;5.78;;
63095;SDS011;49184;55.596;37.770;2022-11-18T20:32:01;22.38;;;6.72;;
63095;SDS011;49184;55.596;37.770;2022-11-18T20:34:48;13.50;;;6.65;;
63095;SDS011;49184;55.596;37.770;2022-11-18T20:37:14;15.73;;;6.60;;
63095;SDS011;49184;55.596;37.770;2022-11-18T20:39:42;14.95;;;6.07;;
63095;SDS011;49184;55.596;37.770;2022-11-18T20:42:16;15.40;;;6.97;;